sensor_id;sensor_type;location;lat;lon;timestamp;temperature;humidity
71291;DHT22;59073;51.994;4.448;2023-08-24T00:00:30;19.52;76.11
71291;DHT22;59073;51.994;4.448;2023-08-24T00:02:57;19.24;77.31
71291;DHT22;59073;51.994;4.448;2023-08-24T00:05:23;18.48;80.52
71291;DHT22;59073;51.994;4.448;2023-08-24T00:07:48;18.30;82.03
71291;DHT22;59073;51.994;4.448;2023-08-24T00:10:14;18.23;82.18
71291;DHT22;59073;51.994;4.448;2023-08-24T00:12:40;18.33;81.93
71291;DHT22;59073;51.994;4.448;2023-08-24T00:15:10;18.45;81.58
71291;DHT22;59073;51.994;4.448;2023-08-24T00:17:37;18.44;81.25
71291;DHT22;59073;51.994;4.448;2023-08-24T00:20:05;18.58;80.87
71291;DHT22;59073;51.994;4.448;2023-08-24T00:22:33;18.69;80.66
71291;DHT22;59073;51.994;4.448;2023-08-24T00:24:58;18.71;80.70
71291;DHT22;59073;51.994;4.448;2023-08-24T00:27:24;18.65;80.89
71291;DHT22;59073;51.994;4.448;2023-08-24T00:29:50;18.44;81.26
71291;DHT22;59073;51.994;4.448;2023-08-24T00:32:15;18.40;81.54
71291;DHT22;59073;51.994;4.448;2023-08-24T00:34:40;18.37;81.36
71291;DHT22;59073;51.994;4.448;2023-08-24T00:37:06;18.31;81.59
71291;DHT22;59073;51.994;4.448;2023-08-24T00:39:31;18.34;81.57
71291;DHT22;59073;51.994;4.448;2023-08-24T00:41:57;18.36;81.55
71291;DHT22;59073;51.994;4.448;2023-08-24T00:44:22;18.33;81.64
71291;DHT22;59073;51.994;4.448;2023-08-24T00:46:48;18.38;82.06
71291;DHT22;59073;51.994;4.448;2023-08-24T00:49:14;18.37;81.91
71291;DHT22;59073;51.994;4.448;2023-08-24T00:51:39;18.38;81.91
71291;DHT22;59073;51.994;4.448;2023-08-24T00:54:05;18.37;81.67
71291;DHT22;59073;51.994;4.448;2023-08-24T00:56:31;18.43;81.82
71291;DHT22;59073;51.994;4.448;2023-08-24T00:58:57;18.43;81.61
71291;DHT22;59073;51.994;4.448;2023-08-24T01:01:23;18.51;81.24
71291;DHT22;59073;51.994;4.448;2023-08-24T01:03:50;18.52;81.00
71291;DHT22;59073;51.994;4.448;2023-08-24T01:06:15;18.50;81.30
71291;DHT22;59073;51.994;4.448;2023-08-24T01:08:41;18.48;81.22
71291;DHT22;59073;51.994;4.448;2023-08-24T01:11:32;18.41;81.66
71291;DHT22;59073;51.994;4.448;2023-08-24T01:14:23;18.34;82.10
71291;DHT22;59073;51.994;4.448;2023-08-24T01:16:58;18.29;82.05
71291;DHT22;59073;51.994;4.448;2023-08-24T01:19:33;18.31;81.59
71291;DHT22;59073;51.994;4.448;2023-08-24T01:22:02;18.40;81.18
71291;DHT22;59073;51.994;4.448;2023-08-24T01:24:38;18.50;81.41
71291;DHT22;59073;51.994;4.448;2023-08-24T01:27:05;18.48;81.96
71291;DHT22;59073;51.994;4.448;2023-08-24T01:29:31;18.48;82.19
71291;DHT22;59073;51.994;4.448;2023-08-24T01:31:57;18.34;82.70
71291;DHT22;59073;51.994;4.448;2023-08-24T01:34:22;18.40;82.93
71291;DHT22;59073;51.994;4.448;2023-08-24T01:36:47;18.48;82.67
71291;DHT22;59073;51.994;4.448;2023-08-24T01:39:31;18.47;82.84
71291;DHT22;59073;51.994;4.448;2023-08-24T01:42:03;18.29;82.63
71291;DHT22;59073;51.994;4.448;2023-08-24T01:44:35;18.18;83.89
71291;DHT22;59073;51.994;4.448;2023-08-24T01:47:05;18.20;84.34
71291;DHT22;59073;51.994;4.448;2023-08-24T01:49:34;18.23;84.09
71291;DHT22;59073;51.994;4.448;2023-08-24T01:52:01;18.30;83.51
71291;DHT22;59073;51.994;4.448;2023-08-24T01:54:28;18.36;83.40
71291;DHT22;59073;51.994;4.448;2023-08-24T01:56:53;18.34;83.37
71291;DHT22;59073;51.994;4.448;2023-08-24T01:59:18;18.37;83.34
71291;DHT22;59073;51.994;4.448;2023-08-24T02:01:44;18.30;83.71
71291;DHT22;59073;51.994;4.448;2023-08-24T02:04:09;18.21;84.03
71291;DHT22;59073;51.994;4.448;2023-08-24T02:06:35;18.12;84.68
71291;DHT22;59073;51.994;4.448;2023-08-24T02:09:00;18.06;84.77
71291;DHT22;59073;51.994;4.448;2023-08-24T02:11:25;18.00;84.81
71291;DHT22;59073;51.994;4.448;2023-08-24T02:13:51;17.96;84.71
71291;DHT22;59073;51.994;4.448;2023-08-24T02:16:16;17.93;85.30
71291;DHT22;59073;51.994;4.448;2023-08-24T02:18:42;17.89;84.74
71291;DHT22;59073;51.994;4.448;2023-08-24T02:21:08;17.89;85.06
71291;DHT22;59073;51.994;4.448;2023-08-24T02:23:35;17.93;84.74
71291;DHT22;59073;51.994;4.448;2023-08-24T02:26:01;18.02;84.72
71291;DHT22;59073;51.994;4.448;2023-08-24T02:28:26;18.10;84.21
71291;DHT22;59073;51.994;4.448;2023-08-24T02:30:51;18.18;84.18
71291;DHT22;59073;51.994;4.448;2023-08-24T02:33:17;18.20;84.30
71291;DHT22;59073;51.994;4.448;2023-08-24T02:35:42;18.26;84.03
71291;DHT22;59073;51.994;4.448;2023-08-24T02:38:10;18.38;83.76
71291;DHT22;59073;51.994;4.448;2023-08-24T02:40:35;18.50;83.34
71291;DHT22;59073;51.994;4.448;2023-08-24T02:43:00;18.78;82.08
71291;DHT22;59073;51.994;4.448;2023-08-24T02:45:26;19.09;81.16
71291;DHT22;59073;51.994;4.448;2023-08-24T02:47:51;19.27;80.34
71291;DHT22;59073;51.994;4.448;2023-08-24T02:50:17;19.15;80.23
71291;DHT22;59073;51.994;4.448;2023-08-24T02:52:42;19.09;80.60
71291;DHT22;59073;51.994;4.448;2023-08-24T02:55:08;19.06;81.20
71291;DHT22;59073;51.994;4.448;2023-08-24T02:57:34;18.78;82.21
71291;DHT22;59073;51.994;4.448;2023-08-24T03:00:00;18.50;83.19
71291;DHT22;59073;51.994;4.448;2023-08-24T03:02:25;18.50;83.26
71291;DHT22;59073;51.994;4.448;2023-08-24T03:04:51;18.58;83.11
71291;DHT22;59073;51.994;4.448;2023-08-24T03:07:16;18.43;83.76
71291;DHT22;59073;51.994;4.448;2023-08-24T03:09:41;18.24;84.30
71291;DHT22;59073;51.994;4.448;2023-08-24T03:12:07;18.18;84.57
71291;DHT22;59073;51.994;4.448;2023-08-24T03:14:33;18.07;85.12
71291;DHT22;59073;51.994;4.448;2023-08-24T03:16:58;17.99;84.87
71291;DHT22;59073;51.994;4.448;2023-08-24T03:19:23;17.97;85.10
71291;DHT22;59073;51.994;4.448;2023-08-24T03:21:49;17.96;85.22
71291;DHT22;59073;51.994;4.448;2023-08-24T03:24:15;17.92;85.57
71291;DHT22;59073;51.994;4.448;2023-08-24T03:26:40;18.04;85.58
71291;DHT22;59073;51.994;4.448;2023-08-24T03:29:05;18.09;85.16
71291;DHT22;59073;51.994;4.448;2023-08-24T03:31:31;18.06;85.23
71291;DHT22;59073;51.994;4.448;2023-08-24T03:33:56;18.16;85.03
71291;DHT22;59073;51.994;4.448;2023-08-24T03:36:22;18.17;85.23
71291;DHT22;59073;51.994;4.448;2023-08-24T03:38:47;18.13;84.89
71291;DHT22;59073;51.994;4.448;2023-08-24T03:41:12;18.09;85.05
71291;DHT22;59073;51.994;4.448;2023-08-24T03:43:38;18.26;84.73
71291;DHT22;59073;51.994;4.448;2023-08-24T03:46:04;18.45;83.95
71291;DHT22;59073;51.994;4.448;2023-08-24T03:48:31;18.76;83.08
71291;DHT22;59073;51.994;4.448;2023-08-24T03:50:57;18.89;82.13
71291;DHT22;59073;51.994;4.448;2023-08-24T03:53:24;18.82;82.23
71291;DHT22;59073;51.994;4.448;2023-08-24T03:55:51;18.79;82.32
71291;DHT22;59073;51.994;4.448;2023-08-24T03:58:17;18.75;82.40
71291;DHT22;59073;51.994;4.448;2023-08-24T04:00:44;18.76;82.30
71291;DHT22;59073;51.994;4.448;2023-08-24T04:03:10;18.79;82.33
71291;DHT22;59073;51.994;4.448;2023-08-24T04:05:35;18.81;82.27
71291;DHT22;59073;51.994;4.448;2023-08-24T04:08:00;18.87;82.10
71291;DHT22;59073;51.994;4.448;2023-08-24T04:10:27;18.87;82.06
71291;DHT22;59073;51.994;4.448;2023-08-24T04:12:52;18.85;81.93
71291;DHT22;59073;51.994;4.448;2023-08-24T04:15:18;18.84;81.62
71291;DHT22;59073;51.994;4.448;2023-08-24T04:17:43;18.55;82.46
71291;DHT22;59073;51.994;4.448;2023-08-24T04:20:09;18.12;84.74
71291;DHT22;59073;51.994;4.448;2023-08-24T04:22:35;17.86;85.92
71291;DHT22;59073;51.994;4.448;2023-08-24T04:25:01;17.73;86.57
71291;DHT22;59073;51.994;4.448;2023-08-24T04:27:26;17.63;86.93
71291;DHT22;59073;51.994;4.448;2023-08-24T04:29:52;17.58;87.06
71291;DHT22;59073;51.994;4.448;2023-08-24T04:32:17;17.59;87.25
71291;DHT22;59073;51.994;4.448;2023-08-24T04:34:43;17.75;86.69
71291;DHT22;59073;51.994;4.448;2023-08-24T04:37:08;18.02;86.02
71291;DHT22;59073;51.994;4.448;2023-08-24T04:39:35;18.33;84.63
71291;DHT22;59073;51.994;4.448;2023-08-24T04:42:00;18.24;84.18
71291;DHT22;59073;51.994;4.448;2023-08-24T04:44:26;18.12;85.06
71291;DHT22;59073;51.994;4.448;2023-08-24T04:46:51;18.06;85.31
71291;DHT22;59073;51.994;4.448;2023-08-24T04:49:16;17.93;85.91
71291;DHT22;59073;51.994;4.448;2023-08-24T04:51:42;18.09;85.56
71291;DHT22;59073;51.994;4.448;2023-08-24T04:54:07;18.21;85.17
71291;DHT22;59073;51.994;4.448;2023-08-24T04:56:33;18.18;85.49
71291;DHT22;59073;51.994;4.448;2023-08-24T04:58:59;18.12;85.91
71291;DHT22;59073;51.994;4.448;2023-08-24T05:01:27;18.07;86.04
71291;DHT22;59073;51.994;4.448;2023-08-24T05:03:55;17.99;86.47
71291;DHT22;59073;51.994;4.448;2023-08-24T05:06:21;17.89;86.88
71291;DHT22;59073;51.994;4.448;2023-08-24T05:08:46;17.99;86.69
71291;DHT22;59073;51.994;4.448;2023-08-24T05:11:13;18.14;86.10
71291;DHT22;59073;51.994;4.448;2023-08-24T05:13:40;18.18;85.86
71291;DHT22;59073;51.994;4.448;2023-08-24T05:16:06;18.23;86.14
71291;DHT22;59073;51.994;4.448;2023-08-24T05:18:31;18.31;85.87
71291;DHT22;59073;51.994;4.448;2023-08-24T05:20:56;18.37;85.47
71291;DHT22;59073;51.994;4.448;2023-08-24T05:23:22;18.57;84.82
71291;DHT22;59073;51.994;4.448;2023-08-24T05:25:47;18.92;83.91
71291;DHT22;59073;51.994;4.448;2023-08-24T05:28:12;19.11;83.16
71291;DHT22;59073;51.994;4.448;2023-08-24T05:30:38;19.34;82.85
71291;DHT22;59073;51.994;4.448;2023-08-24T05:33:03;19.50;81.74
71291;DHT22;59073;51.994;4.448;2023-08-24T05:35:29;19.69;80.89
71291;DHT22;59073;51.994;4.448;2023-08-24T05:37:54;19.80;80.71
71291;DHT22;59073;51.994;4.448;2023-08-24T05:40:20;19.73;81.17
71291;DHT22;59073;51.994;4.448;2023-08-24T05:42:45;19.92;80.39
71291;DHT22;59073;51.994;4.448;2023-08-24T05:45:11;19.97;79.89
71291;DHT22;59073;51.994;4.448;2023-08-24T05:47:37;19.80;80.19
71291;DHT22;59073;51.994;4.448;2023-08-24T05:50:03;19.92;80.36
71291;DHT22;59073;51.994;4.448;2023-08-24T05:52:28;20.12;79.74
71291;DHT22;59073;51.994;4.448;2023-08-24T05:54:53;20.10;79.94
71291;DHT22;59073;51.994;4.448;2023-08-24T05:57:19;20.41;79.15
71291;DHT22;59073;51.994;4.448;2023-08-24T05:59:44;20.63;78.17
71291;DHT22;59073;51.994;4.448;2023-08-24T06:02:10;20.89;77.96
71291;DHT22;59073;51.994;4.448;2023-08-24T06:04:35;20.56;78.20
71291;DHT22;59073;51.994;4.448;2023-08-24T06:07:00;20.75;78.36
71291;DHT22;59073;51.994;4.448;2023-08-24T06:09:26;20.72;77.72
71291;DHT22;59073;51.994;4.448;2023-08-24T06:11:51;20.93;78.11
71291;DHT22;59073;51.994;4.448;2023-08-24T06:14:17;21.27;76.96
71291;DHT22;59073;51.994;4.448;2023-08-24T06:16:42;21.38;76.81
71291;DHT22;59073;51.994;4.448;2023-08-24T06:19:07;21.35;76.12
71291;DHT22;59073;51.994;4.448;2023-08-24T06:21:33;21.26;76.67
71291;DHT22;59073;51.994;4.448;2023-08-24T06:23:58;21.34;76.78
71291;DHT22;59073;51.994;4.448;2023-08-24T06:26:26;21.10;76.67
71291;DHT22;59073;51.994;4.448;2023-08-24T06:28:51;21.11;77.07
71291;DHT22;59073;51.994;4.448;2023-08-24T06:31:17;21.35;76.78
71291;DHT22;59073;51.994;4.448;2023-08-24T06:33:42;21.37;76.94
71291;DHT22;59073;51.994;4.448;2023-08-24T06:36:07;21.57;75.92
71291;DHT22;59073;51.994;4.448;2023-08-24T06:38:33;21.79;75.86
71291;DHT22;59073;51.994;4.448;2023-08-24T06:40:59;22.32;74.46
71291;DHT22;59073;51.994;4.448;2023-08-24T06:43:25;22.35;73.95
71291;DHT22;59073;51.994;4.448;2023-08-24T06:45:51;22.63;72.90
71291;DHT22;59073;51.994;4.448;2023-08-24T06:48:16;22.51;72.80
71291;DHT22;59073;51.994;4.448;2023-08-24T06:50:43;22.61;72.81
71291;DHT22;59073;51.994;4.448;2023-08-24T06:53:08;22.90;72.07
71291;DHT22;59073;51.994;4.448;2023-08-24T06:55:34;22.91;71.20
71291;DHT22;59073;51.994;4.448;2023-08-24T06:57:59;22.46;73.52
71291;DHT22;59073;51.994;4.448;2023-08-24T07:00:25;22.57;73.53
71291;DHT22;59073;51.994;4.448;2023-08-24T07:02:51;22.54;74.35
71291;DHT22;59073;51.994;4.448;2023-08-24T07:05:17;22.28;73.92
71291;DHT22;59073;51.994;4.448;2023-08-24T07:07:46;22.54;73.06
71291;DHT22;59073;51.994;4.448;2023-08-24T07:10:12;22.40;73.86
71291;DHT22;59073;51.994;4.448;2023-08-24T07:12:38;22.47;73.25
71291;DHT22;59073;51.994;4.448;2023-08-24T07:15:08;22.33;73.03
71291;DHT22;59073;51.994;4.448;2023-08-24T07:17:34;22.50;73.21
71291;DHT22;59073;51.994;4.448;2023-08-24T07:19:59;22.53;72.94
71291;DHT22;59073;51.994;4.448;2023-08-24T07:22:25;22.30;73.45
71291;DHT22;59073;51.994;4.448;2023-08-24T07:24:53;22.54;72.94
71291;DHT22;59073;51.994;4.448;2023-08-24T07:27:20;23.01;71.67
71291;DHT22;59073;51.994;4.448;2023-08-24T07:29:45;22.98;72.29
71291;DHT22;59073;51.994;4.448;2023-08-24T07:32:11;22.74;74.08
71291;DHT22;59073;51.994;4.448;2023-08-24T07:34:36;22.56;73.69
71291;DHT22;59073;51.994;4.448;2023-08-24T07:37:02;22.26;72.99
71291;DHT22;59073;51.994;4.448;2023-08-24T07:39:27;22.10;74.59
71291;DHT22;59073;51.994;4.448;2023-08-24T07:41:53;22.24;73.98
71291;DHT22;59073;51.994;4.448;2023-08-24T07:44:18;22.61;72.56
71291;DHT22;59073;51.994;4.448;2023-08-24T07:46:44;22.64;73.61
71291;DHT22;59073;51.994;4.448;2023-08-24T07:49:09;22.70;74.08
71291;DHT22;59073;51.994;4.448;2023-08-24T07:51:36;22.64;73.32
71291;DHT22;59073;51.994;4.448;2023-08-24T07:54:02;22.74;73.54
71291;DHT22;59073;51.994;4.448;2023-08-24T07:56:29;22.59;73.80
71291;DHT22;59073;51.994;4.448;2023-08-24T07:58:55;22.71;74.21
71291;DHT22;59073;51.994;4.448;2023-08-24T08:01:20;22.86;73.39
71291;DHT22;59073;51.994;4.448;2023-08-24T08:03:46;23.11;71.95
71291;DHT22;59073;51.994;4.448;2023-08-24T08:06:11;23.01;73.00
71291;DHT22;59073;51.994;4.448;2023-08-24T08:08:38;22.90;73.02
71291;DHT22;59073;51.994;4.448;2023-08-24T08:11:04;23.07;72.87
71291;DHT22;59073;51.994;4.448;2023-08-24T08:13:29;22.95;72.50
71291;DHT22;59073;51.994;4.448;2023-08-24T08:16:06;23.01;72.91
71291;DHT22;59073;51.994;4.448;2023-08-24T08:18:33;23.08;72.44
71291;DHT22;59073;51.994;4.448;2023-08-24T08:20:59;23.22;72.59
71291;DHT22;59073;51.994;4.448;2023-08-24T08:23:24;23.31;72.51
71291;DHT22;59073;51.994;4.448;2023-08-24T08:25:50;23.25;72.10
71291;DHT22;59073;51.994;4.448;2023-08-24T08:28:16;23.19;72.69
71291;DHT22;59073;51.994;4.448;2023-08-24T08:30:43;23.11;72.34
71291;DHT22;59073;51.994;4.448;2023-08-24T08:33:08;23.02;72.65
71291;DHT22;59073;51.994;4.448;2023-08-24T08:35:33;22.90;73.55
71291;DHT22;59073;51.994;4.448;2023-08-24T08:37:59;22.86;73.79
71291;DHT22;59073;51.994;4.448;2023-08-24T08:40:25;22.94;73.88
71291;DHT22;59073;51.994;4.448;2023-08-24T08:42:57;22.87;73.87
71291;DHT22;59073;51.994;4.448;2023-08-24T08:45:25;22.88;74.46
71291;DHT22;59073;51.994;4.448;2023-08-24T08:48:01;23.02;74.43
71291;DHT22;59073;51.994;4.448;2023-08-24T08:50:27;23.14;73.12
71291;DHT22;59073;51.994;4.448;2023-08-24T08:52:53;23.19;73.12
71291;DHT22;59073;51.994;4.448;2023-08-24T08:55:19;23.21;73.72
71291;DHT22;59073;51.994;4.448;2023-08-24T08:57:48;23.32;72.73
71291;DHT22;59073;51.994;4.448;2023-08-24T09:00:18;23.56;72.35
71291;DHT22;59073;51.994;4.448;2023-08-24T09:02:45;23.51;72.63
71291;DHT22;59073;51.994;4.448;2023-08-24T09:05:12;23.58;72.45
71291;DHT22;59073;51.994;4.448;2023-08-24T09:07:39;23.73;71.83
71291;DHT22;59073;51.994;4.448;2023-08-24T09:10:05;23.84;71.78
71291;DHT22;59073;51.994;4.448;2023-08-24T09:12:33;23.82;73.08
71291;DHT22;59073;51.994;4.448;2023-08-24T09:14:59;23.66;73.25
71291;DHT22;59073;51.994;4.448;2023-08-24T09:17:24;23.77;73.66
71291;DHT22;59073;51.994;4.448;2023-08-24T09:19:50;23.96;72.44
71291;DHT22;59073;51.994;4.448;2023-08-24T09:22:19;24.14;71.78
71291;DHT22;59073;51.994;4.448;2023-08-24T09:24:48;24.11;71.00
71291;DHT22;59073;51.994;4.448;2023-08-24T09:27:17;24.34;70.24
71291;DHT22;59073;51.994;4.448;2023-08-24T09:29:46;24.64;69.29
71291;DHT22;59073;51.994;4.448;2023-08-24T09:32:12;24.85;67.89
71291;DHT22;59073;51.994;4.448;2023-08-24T09:34:37;24.76;68.43
71291;DHT22;59073;51.994;4.448;2023-08-24T09:37:03;24.54;69.62
71291;DHT22;59073;51.994;4.448;2023-08-24T09:39:29;24.69;68.47
71291;DHT22;59073;51.994;4.448;2023-08-24T09:42:00;24.81;69.56
71291;DHT22;59073;51.994;4.448;2023-08-24T09:44:27;24.65;69.58
71291;DHT22;59073;51.994;4.448;2023-08-24T09:46:53;24.60;69.46
71291;DHT22;59073;51.994;4.448;2023-08-24T09:49:19;24.54;69.32
71291;DHT22;59073;51.994;4.448;2023-08-24T09:51:46;24.41;69.97
71291;DHT22;59073;51.994;4.448;2023-08-24T09:54:11;24.10;71.43
71291;DHT22;59073;51.994;4.448;2023-08-24T09:56:40;23.80;73.89
71291;DHT22;59073;51.994;4.448;2023-08-24T09:59:16;23.65;73.82
71291;DHT22;59073;51.994;4.448;2023-08-24T10:01:49;23.70;72.71
71291;DHT22;59073;51.994;4.448;2023-08-24T10:04:17;23.74;72.53
71291;DHT22;59073;51.994;4.448;2023-08-24T10:06:49;23.84;72.58
71291;DHT22;59073;51.994;4.448;2023-08-24T10:09:22;23.77;73.14
71291;DHT22;59073;51.994;4.448;2023-08-24T10:11:56;23.76;73.06
71291;DHT22;59073;51.994;4.448;2023-08-24T10:14:44;23.55;73.29
71291;DHT22;59073;51.994;4.448;2023-08-24T10:17:13;23.49;73.44
71291;DHT22;59073;51.994;4.448;2023-08-24T10:19:41;23.41;74.02
71291;DHT22;59073;51.994;4.448;2023-08-24T10:22:07;23.41;74.47
71291;DHT22;59073;51.994;4.448;2023-08-24T10:24:37;23.62;73.78
71291;DHT22;59073;51.994;4.448;2023-08-24T10:27:03;23.86;73.66
71291;DHT22;59073;51.994;4.448;2023-08-24T10:29:29;23.87;73.17
71291;DHT22;59073;51.994;4.448;2023-08-24T10:31:56;23.97;73.38
71291;DHT22;59073;51.994;4.448;2023-08-24T10:34:23;24.01;73.88
71291;DHT22;59073;51.994;4.448;2023-08-24T10:36:48;24.07;73.77
71291;DHT22;59073;51.994;4.448;2023-08-24T10:39:14;24.27;73.48
71291;DHT22;59073;51.994;4.448;2023-08-24T10:41:50;24.34;73.17
71291;DHT22;59073;51.994;4.448;2023-08-24T10:44:35;24.52;73.32
71291;DHT22;59073;51.994;4.448;2023-08-24T10:47:19;24.93;72.61
71291;DHT22;59073;51.994;4.448;2023-08-24T10:50:03;25.47;70.54
71291;DHT22;59073;51.994;4.448;2023-08-24T10:52:36;25.87;69.56
71291;DHT22;59073;51.994;4.448;2023-08-24T10:55:05;25.78;68.40
71291;DHT22;59073;51.994;4.448;2023-08-24T10:57:55;25.63;68.57
71291;DHT22;59073;51.994;4.448;2023-08-24T11:00:25;25.53;69.28
71291;DHT22;59073;51.994;4.448;2023-08-24T11:02:52;25.39;68.96
71291;DHT22;59073;51.994;4.448;2023-08-24T11:08:03;25.19;69.02
71291;DHT22;59073;51.994;4.448;2023-08-24T11:13:15;25.44;68.49
71291;DHT22;59073;51.994;4.448;2023-08-24T11:15:46;25.54;69.17
71291;DHT22;59073;51.994;4.448;2023-08-24T11:18:26;25.27;70.47
71291;DHT22;59073;51.994;4.448;2023-08-24T11:21:06;25.15;71.22
71291;DHT22;59073;51.994;4.448;2023-08-24T11:23:32;25.30;69.72
71291;DHT22;59073;51.994;4.448;2023-08-24T11:25:59;25.37;69.88
71291;DHT22;59073;51.994;4.448;2023-08-24T11:28:29;25.30;71.07
71291;DHT22;59073;51.994;4.448;2023-08-24T11:30:56;24.83;71.26
71291;DHT22;59073;51.994;4.448;2023-08-24T11:33:33;24.27;72.44
71291;DHT22;59073;51.994;4.448;2023-08-24T11:36:00;23.97;73.15
71291;DHT22;59073;51.994;4.448;2023-08-24T11:38:38;23.96;73.88
71291;DHT22;59073;51.994;4.448;2023-08-24T11:41:19;23.92;73.82
71291;DHT22;59073;51.994;4.448;2023-08-24T11:43:47;23.96;74.33
71291;DHT22;59073;51.994;4.448;2023-08-24T11:46:15;23.82;74.58
71291;DHT22;59073;51.994;4.448;2023-08-24T11:48:41;24.03;75.28
71291;DHT22;59073;51.994;4.448;2023-08-24T11:51:10;24.34;74.44
71291;DHT22;59073;51.994;4.448;2023-08-24T11:53:39;24.68;73.96
71291;DHT22;59073;51.994;4.448;2023-08-24T11:56:08;24.72;73.02
71291;DHT22;59073;51.994;4.448;2023-08-24T11:58:33;24.91;72.30
71291;DHT22;59073;51.994;4.448;2023-08-24T12:01:00;24.98;72.01
71291;DHT22;59073;51.994;4.448;2023-08-24T12:03:26;24.89;71.88
71291;DHT22;59073;51.994;4.448;2023-08-24T12:05:51;24.68;72.09
71291;DHT22;59073;51.994;4.448;2023-08-24T12:08:17;24.41;74.06
71291;DHT22;59073;51.994;4.448;2023-08-24T12:10:43;24.27;74.52
71291;DHT22;59073;51.994;4.448;2023-08-24T12:13:08;24.40;72.92
71291;DHT22;59073;51.994;4.448;2023-08-24T12:15:36;24.51;73.37
71291;DHT22;59073;51.994;4.448;2023-08-24T12:18:13;24.76;72.90
71291;DHT22;59073;51.994;4.448;2023-08-24T12:20:42;25.01;72.16
71291;DHT22;59073;51.994;4.448;2023-08-24T12:23:09;25.16;71.90
71291;DHT22;59073;51.994;4.448;2023-08-24T12:25:41;25.36;71.18
71291;DHT22;59073;51.994;4.448;2023-08-24T12:28:12;25.49;70.69
71291;DHT22;59073;51.994;4.448;2023-08-24T12:31:04;25.16;72.39
71291;DHT22;59073;51.994;4.448;2023-08-24T12:33:31;25.71;70.80
71291;DHT22;59073;51.994;4.448;2023-08-24T12:35:57;25.70;69.92
71291;DHT22;59073;51.994;4.448;2023-08-24T12:38:25;25.85;70.97
71291;DHT22;59073;51.994;4.448;2023-08-24T12:40:52;26.09;70.98
71291;DHT22;59073;51.994;4.448;2023-08-24T12:43:18;26.17;68.41
71291;DHT22;59073;51.994;4.448;2023-08-24T12:45:43;26.04;69.24
71291;DHT22;59073;51.994;4.448;2023-08-24T12:48:10;25.84;69.52
71291;DHT22;59073;51.994;4.448;2023-08-24T12:50:38;25.98;68.73
71291;DHT22;59073;51.994;4.448;2023-08-24T12:53:04;25.44;71.10
71291;DHT22;59073;51.994;4.448;2023-08-24T12:55:33;25.36;71.59
71291;DHT22;59073;51.994;4.448;2023-08-24T12:57:59;25.82;70.28
71291;DHT22;59073;51.994;4.448;2023-08-24T13:00:25;25.80;69.70
71291;DHT22;59073;51.994;4.448;2023-08-24T13:02:52;25.97;68.86
71291;DHT22;59073;51.994;4.448;2023-08-24T13:05:17;25.63;71.95
71291;DHT22;59073;51.994;4.448;2023-08-24T13:07:42;25.90;69.83
71291;DHT22;59073;51.994;4.448;2023-08-24T13:10:08;25.85;70.96
71291;DHT22;59073;51.994;4.448;2023-08-24T13:12:34;25.80;70.81
71291;DHT22;59073;51.994;4.448;2023-08-24T13:15:00;25.94;70.87
71291;DHT22;59073;51.994;4.448;2023-08-24T13:17:25;26.11;70.20
71291;DHT22;59073;51.994;4.448;2023-08-24T13:19:51;26.28;69.32
71291;DHT22;59073;51.994;4.448;2023-08-24T13:22:16;26.20;69.59
71291;DHT22;59073;51.994;4.448;2023-08-24T13:24:42;26.41;70.42
71291;DHT22;59073;51.994;4.448;2023-08-24T13:27:09;27.00;67.95
71291;DHT22;59073;51.994;4.448;2023-08-24T13:29:36;27.38;65.23
71291;DHT22;59073;51.994;4.448;2023-08-24T13:32:02;27.54;63.57
71291;DHT22;59073;51.994;4.448;2023-08-24T13:34:28;27.45;63.84
71291;DHT22;59073;51.994;4.448;2023-08-24T13:36:54;27.78;64.26
71291;DHT22;59073;51.994;4.448;2023-08-24T13:39:19;27.44;63.19
71291;DHT22;59073;51.994;4.448;2023-08-24T13:41:45;27.50;62.94
71291;DHT22;59073;51.994;4.448;2023-08-24T13:44:10;27.59;64.36
71291;DHT22;59073;51.994;4.448;2023-08-24T13:46:35;27.71;64.59
71291;DHT22;59073;51.994;4.448;2023-08-24T13:49:01;27.78;63.22
71291;DHT22;59073;51.994;4.448;2023-08-24T13:51:27;27.85;61.95
71291;DHT22;59073;51.994;4.448;2023-08-24T13:53:53;27.52;62.62
71291;DHT22;59073;51.994;4.448;2023-08-24T13:56:19;27.33;63.92
71291;DHT22;59073;51.994;4.448;2023-08-24T13:58:44;27.27;63.87
71291;DHT22;59073;51.994;4.448;2023-08-24T14:01:10;27.24;65.17
71291;DHT22;59073;51.994;4.448;2023-08-24T14:03:36;27.07;65.62
71291;DHT22;59073;51.994;4.448;2023-08-24T14:06:03;27.07;64.89
71291;DHT22;59073;51.994;4.448;2023-08-24T14:08:28;26.49;65.61
71291;DHT22;59073;51.994;4.448;2023-08-24T14:10:53;26.41;64.72
71291;DHT22;59073;51.994;4.448;2023-08-24T14:13:19;26.32;64.57
71291;DHT22;59073;51.994;4.448;2023-08-24T14:15:47;26.32;64.82
71291;DHT22;59073;51.994;4.448;2023-08-24T14:18:13;26.25;65.34
71291;DHT22;59073;51.994;4.448;2023-08-24T14:20:39;26.38;65.63
71291;DHT22;59073;51.994;4.448;2023-08-24T14:23:04;26.48;65.60
71291;DHT22;59073;51.994;4.448;2023-08-24T14:25:29;26.53;66.20
71291;DHT22;59073;51.994;4.448;2023-08-24T14:27:55;26.59;66.42
71291;DHT22;59073;51.994;4.448;2023-08-24T14:30:20;26.59;65.96
71291;DHT22;59073;51.994;4.448;2023-08-24T14:32:46;26.66;65.81
71291;DHT22;59073;51.994;4.448;2023-08-24T14:35:11;26.68;65.76
71291;DHT22;59073;51.994;4.448;2023-08-24T14:37:37;26.79;65.94
71291;DHT22;59073;51.994;4.448;2023-08-24T14:40:05;26.79;65.55
71291;DHT22;59073;51.994;4.448;2023-08-24T14:42:31;27.04;64.27
71291;DHT22;59073;51.994;4.448;2023-08-24T14:44:56;27.41;64.26
71291;DHT22;59073;51.994;4.448;2023-08-24T14:47:21;27.48;64.58
71291;DHT22;59073;51.994;4.448;2023-08-24T14:49:47;27.71;64.39
71291;DHT22;59073;51.994;4.448;2023-08-24T14:52:13;27.51;64.68
71291;DHT22;59073;51.994;4.448;2023-08-24T14:54:39;27.24;65.01
71291;DHT22;59073;51.994;4.448;2023-08-24T14:57:04;27.01;66.56
71291;DHT22;59073;51.994;4.448;2023-08-24T14:59:31;27.15;65.88
71291;DHT22;59073;51.994;4.448;2023-08-24T15:01:57;27.24;66.54
71291;DHT22;59073;51.994;4.448;2023-08-24T15:04:26;27.41;65.45
71291;DHT22;59073;51.994;4.448;2023-08-24T15:06:52;27.27;65.43
71291;DHT22;59073;51.994;4.448;2023-08-24T15:09:17;27.29;65.10
71291;DHT22;59073;51.994;4.448;2023-08-24T15:11:42;27.37;65.99
71291;DHT22;59073;51.994;4.448;2023-08-24T15:14:08;27.35;65.82
71291;DHT22;59073;51.994;4.448;2023-08-24T15:16:33;27.34;64.70
71291;DHT22;59073;51.994;4.448;2023-08-24T15:18:59;27.03;65.38
71291;DHT22;59073;51.994;4.448;2023-08-24T15:21:24;26.90;65.12
71291;DHT22;59073;51.994;4.448;2023-08-24T15:23:50;26.57;65.66
71291;DHT22;59073;51.994;4.448;2023-08-24T15:26:15;26.41;66.30
71291;DHT22;59073;51.994;4.448;2023-08-24T15:29:07;26.57;65.88
71291;DHT22;59073;51.994;4.448;2023-08-24T15:31:34;26.68;65.07
71291;DHT22;59073;51.994;4.448;2023-08-24T15:34:00;26.59;63.87